RAS weather

Mustang Beach Airport
Port Aransas, Texas, United States

Public forecast

Using degrees Fahrenheit for public forecast. Weather courtesy of forecast.io.

Current aviation weather report (METAR) for Mustang Beach Airport

Retrieved 2019/10/22 17:35 UTC (0 seconds ago):

KRAS 221735Z AUTO 06015G20KT 10SM CLR 27/13 A3017 RMK AO2 T02670125

Closest aviation forecast (TAF) to Mustang Beach Airport

Forecast is more than 12 hours old.

Closest forecast is Corpus Christi Naval Air Station/Truax Field, 12.9 nm (23.9 km) WSW. Retrieved 2015/05/10 23:09 UTC (4 years ago):

TAF KNGP 092300Z 0923/1023 14020G30KT 9999 FEW025 SCT150 QNH2967INS TEMPO 0923/1003 BKN010 OVC030 BECMG 1003/1005 14016G22KT 8000 BR OVC010 QNH2969INS BECMG 1013/1015 15018G28KT BKN020 QNH2970INS AUTOMATED SENSOR METWATCH 0923 TIL 1111 TX30/0923Z TN25/1006Z